CmaCGm Ohio — 9HA4132 — position and weather

sailwx.info

Track history (hours):
 
Tides and Currents Weather Stations Pressure Air Temp Water Temp Dewpoint Dewpoint Depression Visibility Wind Speed Wind Dir Waves Ship Positions

CmaCGm Ohio

Last reported at 2018-Feb-02 02:58 UTC. Time now 2018-Feb-21 03:31 UTC.
Position N 35°01' E 140°34'.
Warning: this ship's position is 19 days out of date.

Length 300 m; draft 14.1 m.

Type: Ship (hazmat cat A). MMSI: 249167000.

Date/timePositionNaut miles runAvg speedWind from/ knotsBaromVisibWave heightAir tempDewpointWater temp
2018-Feb-02 02:58N 35°01' E 140°34'915.8
2018-Feb-02 02:25N 34°57' E 140°24'715.9
2018-Feb-02 02:00N 34°54' E 140°17'815.3
2018-Feb-02 01:29N 34°50' E 140°09'714.7
2018-Feb-02 01:00N 34°46' E 140°01'815.9
2018-Feb-02 00:30N 34°48' E 139°52'816.4
2018-Feb-02 00:00N 34°51' E 139°42'714.8
2018-Feb-01 23:30N 34°58' E 139°40'917.4
2018-Feb-01 23:00N 35°06' E 139°44'1212.3
2018-Feb-01 22:00N 35°18' E 139°44'611.6
2018-Feb-01 21:30N 35°24' E 139°41'1 0.3
2018-Feb-01 19:30N 35°24' E 139°41'0 0.0
2018-Feb-01 19:00N 35°24' E 139°41'0 0.0
2018-Feb-01 18:30N 35°24' E 139°41'0 0.0
2018-Feb-01 17:54N 35°24' E 139°41'0 0.0
2018-Feb-01 17:30N 35°24' E 139°41'0 0.0
2018-Feb-01 17:00N 35°24' E 139°41'0 0.0
2018-Feb-01 16:30N 35°24' E 139°41'0 0.0
2018-Feb-01 16:00N 35°24' E 139°41'0 0.0
2018-Feb-01 15:30N 35°24' E 139°41'0 0.0
2018-Feb-01 15:00N 35°24' E 139°41'0 0.0
2018-Feb-01 13:30N 35°24' E 139°41'0 0.0
2018-Feb-01 13:00N 35°24' E 139°41'0 0.0
2018-Feb-01 12:30N 35°24' E 139°41'0 0.0
2018-Feb-01 12:00N 35°24' E 139°41'0 0.0
2018-Feb-01 11:00N 35°24' E 139°41'0 0.0
2018-Feb-01 10:30N 35°24' E 139°41'0 0.0
2018-Feb-01 10:00N 35°24' E 139°41'0 0.0
2018-Feb-01 09:30N 35°24' E 139°41'0 0.4
2018-Feb-01 08:59N 35°24' E 139°41'1 3.1
2018-Feb-01 08:30N 35°23' E 139°42'1111.4
2018-Feb-01 07:30N 35°12' E 139°47'4 8.8
2018-Feb-01 07:00N 35°08' E 139°46'612.7
2018-Feb-01 06:30N 35°03' E 139°41'917.0
2018-Feb-01 06:00N 34°57' E 139°33'1117.9
2018-Feb-01 05:23N 34°51' E 139°22'717.9
2018-Feb-01 05:00N 34°46' E 139°17'1018.2
2018-Feb-01 04:29N 34°38' E 139°10'917.4
2018-Feb-01 03:58N 34°32' E 139°02'1717.4
2018-Feb-01 02:59N 34°22' E 138°45'917.4
2018-Feb-01 02:28N 34°17' E 138°36'1417.4
2018-Feb-01 01:38N 34°09' E 138°21'417.4
2018-Feb-01 01:26N 34°07' E 138°18'918.1
2018-Feb-01 00:56N 34°02' E 138°09'  
2018-Jan-27 12:48N 30°34' E 122°34'1610.2
2018-Jan-27 11:11N 30°33' E 122°15'314.4
2018-Jan-27 10:59N 30°34' E 122°11'6 0.2
2018-Jan-26 06:43N 30°36' E 122°05'0 0.1
2018-Jan-26 06:30N 30°36' E 122°05'1 1.5
2018-Jan-26 06:00N 30°36' E 122°04'2 3.6
2018-Jan-26 05:30N 30°36' E 122°06'612.1
2018-Jan-26 04:58N 30°34' E 122°13'4 7.6
2018-Jan-26 04:27N 30°33' E 122°18'4 5.1
2018-Jan-26 03:40N 30°33' E 122°22'  
Track history (hours):
 
Tides and Currents Weather Stations Pressure Air Temp Water Temp Dewpoint Dewpoint Depression Visibility Wind Speed Wind Dir Waves Ship Positions

CmaCGm Ohio

Last reported at 2018-Feb-02 02:58 UTC. Time now 2018-Feb-21 03:31 UTC.
Position N 35°01' E 140°34'.
Warning: this ship's position is 19 days out of date.

Length 300 m; draft 14.1 m.

Type: Ship (hazmat cat A). MMSI: 249167000.

Date/timePositionNaut miles runAvg speedWind from/ knotsBaromVisibWave heightAir tempDewpointWater temp
2018-Feb-02 02:58N 35°01' E 140°34'915.8
2018-Feb-02 02:25N 34°57' E 140°24'715.9
2018-Feb-02 02:00N 34°54' E 140°17'815.3
2018-Feb-02 01:29N 34°50' E 140°09'714.7
2018-Feb-02 01:00N 34°46' E 140°01'815.9
2018-Feb-02 00:30N 34°48' E 139°52'816.4
2018-Feb-02 00:00N 34°51' E 139°42'714.8
2018-Feb-01 23:30N 34°58' E 139°40'917.4
2018-Feb-01 23:00N 35°06' E 139°44'1212.3
2018-Feb-01 22:00N 35°18' E 139°44'611.6
2018-Feb-01 21:30N 35°24' E 139°41'1 0.3
2018-Feb-01 19:30N 35°24' E 139°41'0 0.0
2018-Feb-01 19:00N 35°24' E 139°41'0 0.0
2018-Feb-01 18:30N 35°24' E 139°41'0 0.0
2018-Feb-01 17:54N 35°24' E 139°41'0 0.0
2018-Feb-01 17:30N 35°24' E 139°41'0 0.0
2018-Feb-01 17:00N 35°24' E 139°41'0 0.0
2018-Feb-01 16:30N 35°24' E 139°41'0 0.0
2018-Feb-01 16:00N 35°24' E 139°41'0 0.0
2018-Feb-01 15:30N 35°24' E 139°41'0 0.0
2018-Feb-01 15:00N 35°24' E 139°41'0 0.0
2018-Feb-01 13:30N 35°24' E 139°41'0 0.0
2018-Feb-01 13:00N 35°24' E 139°41'0 0.0
2018-Feb-01 12:30N 35°24' E 139°41'0 0.0
2018-Feb-01 12:00N 35°24' E 139°41'0 0.0
2018-Feb-01 11:00N 35°24' E 139°41'0 0.0
2018-Feb-01 10:30N 35°24' E 139°41'0 0.0
2018-Feb-01 10:00N 35°24' E 139°41'0 0.0
2018-Feb-01 09:30N 35°24' E 139°41'0 0.4
2018-Feb-01 08:59N 35°24' E 139°41'1 3.1
2018-Feb-01 08:30N 35°23' E 139°42'1111.4
2018-Feb-01 07:30N 35°12' E 139°47'4 8.8
2018-Feb-01 07:00N 35°08' E 139°46'612.7
2018-Feb-01 06:30N 35°03' E 139°41'917.0
2018-Feb-01 06:00N 34°57' E 139°33'1117.9
2018-Feb-01 05:23N 34°51' E 139°22'717.9
2018-Feb-01 05:00N 34°46' E 139°17'1018.2
2018-Feb-01 04:29N 34°38' E 139°10'917.4
2018-Feb-01 03:58N 34°32' E 139°02'1717.4
2018-Feb-01 02:59N 34°22' E 138°45'917.4
2018-Feb-01 02:28N 34°17' E 138°36'1417.4
2018-Feb-01 01:38N 34°09' E 138°21'417.4
2018-Feb-01 01:26N 34°07' E 138°18'918.1
2018-Feb-01 00:56N 34°02' E 138°09'  
2018-Jan-27 12:48N 30°34' E 122°34'1610.2
2018-Jan-27 11:11N 30°33' E 122°15'314.4
2018-Jan-27 10:59N 30°34' E 122°11'6 0.2
2018-Jan-26 06:43N 30°36' E 122°05'0 0.1
2018-Jan-26 06:30N 30°36' E 122°05'1 1.5
2018-Jan-26 06:00N 30°36' E 122°04'2 3.6
2018-Jan-26 05:30N 30°36' E 122°06'612.1
2018-Jan-26 04:58N 30°34' E 122°13'4 7.6
2018-Jan-26 04:27N 30°33' E 122°18'4 5.1
2018-Jan-26 03:40N 30°33' E 122°22'  

Dump ship's entire track history